• Join FlightAware (Why Join?)
  • Login
  • US Flag 
03:32AM EDT


 

Airport Tracker/Info


-or-


 

Live Flight TrackerFlight Track Log ✈ UAL395 ✈ 19-Aug-2013 ✈ KBOS - KEWR

Flight Track Log - Related Links

Times and Time Zones

All times are in EDT time to prevent confusion due to time zone crossing. See the UAL395 flight status page for this flight to view local times or setup timezone preferences in your user account.

Time Position Orientation Groundspeed Altitude Reporting Facility
EDT Latitude Longitude Course Direction KTS MPH feet Rate Location/Type
10:14AM 42.3500 -71.0167 240° Southwest 158 182 900  Level KA90
10:16AM 42.4170 -70.7506 124° Southeast  Level FlightAware Approximate
10:16AM 42.3131 -70.9128 116° Southeast 205 236 3,900  Level Boston Center
10:17AM 42.3372 -70.7241 172° South  Level FlightAware Approximate
10:17AM 42.3325 -70.8253 73° East 240 276 6,200  Level Boston Center
10:18AM 42.2686 -70.7638 228° Southwest  Level FlightAware Approximate
10:18AM 42.3019 -70.7250 112° Southeast 256 295 9,300  Level Boston Center
10:19AM 42.2174 -70.8539 240° Southwest  Level FlightAware Approximate
10:19AM 42.2144 -70.7331 184° South 223 257 11,000  Level Boston Center
10:20AM 42.1728 -70.8742 248° West 228 262 12,700 2,340 Climbing Boston Center
10:21AM 42.1578 -70.9922 260° West 324 373 15,800 1,620 Climbing Boston Center
10:22AM 42.1367 -71.1467 260° West 375 432 16,000 60 Climbing Boston Center
10:23AM 42.1214 -71.2786 261° West 392 451 16,000  Level Boston Center
10:24AM 42.1042 -71.4328 261° West 392 451 16,000  Level Boston Center
10:25AM 42.0864 -71.5617 260° West 392 451 16,000  Level Boston Center
10:26AM 42.0708 -71.7017 262° West 392 451 16,000  Level Boston Center
10:27AM 42.0508 -71.8614 260° West 392 451 16,000  Level Boston Center
10:29AM 42.0144 -72.1300 260° West 392 451 16,000  Level Boston Center
10:30AM 41.9939 -72.2836 260° West 392 451 16,000  Level Boston Center
10:31AM 41.9772 -72.4150 260° West 392 451 16,000 -60 Level Boston Center
10:32AM 41.9586 -72.5658 261° West 392 451 15,900 -60 Descending Boston Center
10:33AM 41.9375 -72.7108 259° West 392 451 15,900  Level Boston Center
10:34AM 41.9017 -72.8472 251° West 392 451 15,900  Level Boston Center
10:35AM 41.8761 -72.9586 253° West 392 451 15,900 -540 Level Boston Center
10:36AM 41.8397 -73.1200 253° West 392 451 14,900 -960 Descending Boston Center
10:37AM 41.8097 -73.2422 252° West 385 443 14,000 -540 Descending Boston Center
10:38AM 41.7775 -73.3753 252° West 385 443 13,900 -60 Descending Boston Center
10:39AM 41.7347 -73.5167 248° West 385 443 13,900 -360 Level Boston Center
10:40AM 41.6836 -73.6214 237° Southwest 380 437 13,200 -960 Descending Boston Center
10:41AM 41.6239 -73.7508 238° Southwest 380 437 12,100 -1,020 Descending Boston Center
10:42AM 41.5767 -73.8497 237° Southwest 366 421 11,200 -1,740 Descending Boston Center
10:43AM 41.5297 -73.9486 238° Southwest 318 366 8,600 -1,980 Descending Boston Center
10:44AM 41.4833 -74.0500 239° Southwest 282 325 7,100 -780 Descending New York TRACON
10:45AM 41.4333 -74.1333 231° Southwest 272 313 7,000 -60 Descending New York TRACON
10:46AM 41.3833 -74.2000 225° Southwest 284 327 7,000 -300 Level New York TRACON
10:47AM 41.3167 -74.2667 217° Southwest 283 326 6,500 -480 Descending New York TRACON
10:48AM 41.2667 -74.3333 225° Southwest 278 320 6,100 -300 Descending New York TRACON
10:49AM 41.2000 -74.3833 209° Southwest 285 328 6,000 -60 Descending New York TRACON
10:50AM 41.1167 -74.3500 163° South 285 328 6,000 -300 Level New York TRACON
10:51AM 41.0333 -74.3333 171° South 282 325 5,500 -480 Descending New York TRACON
10:52AM 40.9833 -74.3167 166° South 281 323 5,100 -540 Descending New York TRACON
10:53AM 40.9333 -74.2333 128° Southeast 279 321 4,500 -600 Descending New York TRACON
10:54AM 40.9167 -74.1333 102° East 260 299 4,000 -420 Descending New York TRACON
10:54AM 40.9000 -74.0667 108° East 215 247 3,800 -420 Descending New York TRACON
10:55AM 40.8333 -74.0667 180° South 196 226 3,300 -900 Descending New York TRACON
10:56AM 40.8000 -74.1000 217° Southwest 195 224 2,100 -1,080 Descending New York TRACON
10:57AM 40.7500 -74.1333 207° Southwest 149 171 1,200 -840 Descending New York TRACON
10:58AM 40.7167 -74.1500 201° Southwest 141 162 500 -720 Descending New York TRACON